createdAt,value
2022-11-22T00:01:15.793Z,0.40
2022-11-22T00:03:43.786Z,0.40
2022-11-22T00:06:11.793Z,0.40
2022-11-22T00:08:39.823Z,0.40
2022-11-22T00:11:07.801Z,0.50
2022-11-22T00:13:37.370Z,0.50
2022-11-22T00:16:06.136Z,0.40
2022-11-22T00:18:34.466Z,0.50
2022-11-22T00:21:07.138Z,0.40
2022-11-22T00:23:35.692Z,0.40
2022-11-22T00:26:03.782Z,0.40
2022-11-22T00:28:31.813Z,0.40
2022-11-22T00:31:01.224Z,0.40
2022-11-22T00:33:29.284Z,0.40
2022-11-22T00:35:57.381Z,0.40
2022-11-22T00:38:25.444Z,0.50
2022-11-22T00:40:53.677Z,0.50
2022-11-22T00:43:21.695Z,0.50
2022-11-22T00:45:49.726Z,0.50
2022-11-22T00:48:19.112Z,0.60
2022-11-22T00:50:49.449Z,0.60
2022-11-22T00:53:17.448Z,0.60
2022-11-22T00:55:46.788Z,0.60
2022-11-22T00:58:14.850Z,0.50
2022-11-22T01:00:43.204Z,0.50
2022-11-22T01:03:12.638Z,0.60
2022-11-22T01:05:42.083Z,0.60
2022-11-22T01:08:10.683Z,0.60
2022-11-22T01:10:39.302Z,0.60
2022-11-22T01:13:07.587Z,0.60
2022-11-22T01:15:35.637Z,0.60
2022-11-22T01:18:03.680Z,0.60
2022-11-22T01:20:31.972Z,0.60
2022-11-22T01:23:01.365Z,0.70
2022-11-22T01:25:29.342Z,0.70
2022-11-22T01:27:57.352Z,0.70
2022-11-22T01:30:25.586Z,0.70
2022-11-22T01:32:53.643Z,0.70
2022-11-22T01:35:21.731Z,0.70
2022-11-22T01:37:49.803Z,0.70
2022-11-22T01:40:19.590Z,0.70
2022-11-22T01:42:52.050Z,0.70
2022-11-22T01:45:43.566Z,0.70
2022-11-22T01:48:39.371Z,0.60
2022-11-22T01:51:19.784Z,0.70
2022-11-22T01:53:48.138Z,0.70
2022-11-22T01:56:20.726Z,0.70
2022-11-22T01:58:52.142Z,0.70
2022-11-22T02:01:20.652Z,0.70
2022-11-22T02:03:52.961Z,0.60
2022-11-22T02:06:21.753Z,0.60
2022-11-22T02:08:58.423Z,0.60
2022-11-22T02:11:33.994Z,0.60
2022-11-22T02:14:03.239Z,0.60
2022-11-22T02:16:31.639Z,0.60
2022-11-22T02:18:59.630Z,0.60
2022-11-22T02:21:28.573Z,0.60
2022-11-22T02:24:02.295Z,0.70
2022-11-22T02:26:33.473Z,0.60
2022-11-22T02:29:05.187Z,0.60
2022-11-22T02:31:39.255Z,0.60
2022-11-22T02:34:07.388Z,0.60
2022-11-22T02:36:40.580Z,0.60
2022-11-22T02:39:10.497Z,0.60
2022-11-22T02:41:40.561Z,0.70
2022-11-22T02:44:10.532Z,0.60
2022-11-22T02:46:47.861Z,0.60
2022-11-22T02:49:18.434Z,0.70
2022-11-22T02:51:46.985Z,0.60
2022-11-22T02:54:15.085Z,0.60
2022-11-22T02:56:44.499Z,0.70
2022-11-22T02:59:12.549Z,0.60
2022-11-22T03:01:40.886Z,0.60
2022-11-22T03:04:08.959Z,0.70
2022-11-22T03:06:37.096Z,0.60
2022-11-22T03:09:05.236Z,0.60
2022-11-22T03:11:33.235Z,0.70
2022-11-22T03:14:02.633Z,0.70
2022-11-22T03:16:31.798Z,0.70
2022-11-22T03:19:00.148Z,0.70
2022-11-22T03:21:28.193Z,0.70
2022-11-22T03:23:56.367Z,0.70
2022-11-22T03:26:24.670Z,0.70
2022-11-22T03:28:52.700Z,0.70
2022-11-22T03:31:22.247Z,0.80
2022-11-22T03:33:50.265Z,0.70
2022-11-22T03:36:18.432Z,0.80
2022-11-22T03:38:46.527Z,0.70
2022-11-22T03:41:14.541Z,0.70
2022-11-22T03:43:43.013Z,0.80
2022-11-22T03:46:15.874Z,0.80
2022-11-22T03:48:45.214Z,0.80
2022-11-22T03:51:13.490Z,0.80
2022-11-22T03:53:41.542Z,0.80
2022-11-22T03:56:09.596Z,0.80
2022-11-22T03:58:37.634Z,0.80
2022-11-22T04:01:05.703Z,0.80
2022-11-22T04:03:33.785Z,0.80
2022-11-22T04:06:03.277Z,0.80
2022-11-22T04:08:31.379Z,0.90
2022-11-22T04:10:59.443Z,0.80
2022-11-22T04:13:47.721Z,0.80
2022-11-22T04:16:14.844Z,0.90
2022-11-22T04:18:43.287Z,0.80
2022-11-22T04:21:30.289Z,0.90
2022-11-22T04:24:16.323Z,0.90
2022-11-22T04:26:44.331Z,0.80
2022-11-22T04:29:12.391Z,0.90
2022-11-22T04:31:57.736Z,0.90
2022-11-22T04:34:26.124Z,0.90
2022-11-22T04:36:55.556Z,1.00
2022-11-22T04:39:23.589Z,0.90
2022-11-22T04:42:14.200Z,1.00
2022-11-22T04:44:41.613Z,1.00
2022-11-22T04:47:10.013Z,1.00
2022-11-22T04:49:38.465Z,1.00
2022-11-22T04:52:25.612Z,1.10
2022-11-22T04:54:53.594Z,1.10
2022-11-22T04:57:21.980Z,1.10
2022-11-22T04:59:50.002Z,1.10
2022-11-22T05:02:18.017Z,1.10
2022-11-22T05:04:50.472Z,1.10
2022-11-22T05:07:20.659Z,1.10
2022-11-22T05:09:48.745Z,1.10
2022-11-22T05:12:16.791Z,1.10
2022-11-22T05:14:45.039Z,1.20
2022-11-22T05:17:13.552Z,1.10
2022-11-22T05:19:46.411Z,1.10
2022-11-22T05:22:17.536Z,1.10
2022-11-22T05:24:45.880Z,1.10
2022-11-22T05:27:14.167Z,1.20
2022-11-22T05:29:42.483Z,1.20
2022-11-22T05:32:10.464Z,1.30
2022-11-22T05:34:38.488Z,1.30
2022-11-22T05:37:06.770Z,1.30
2022-11-22T05:39:34.739Z,1.30
2022-11-22T05:42:05.983Z,1.30
2022-11-22T05:44:38.772Z,1.20
2022-11-22T05:47:11.336Z,1.30
2022-11-22T05:49:39.511Z,1.30
2022-11-22T05:52:08.792Z,1.20
2022-11-22T05:54:37.176Z,1.30
2022-11-22T05:57:06.608Z,1.30
2022-11-22T05:59:36.049Z,1.20
2022-11-22T06:02:06.025Z,1.20
2022-11-22T06:04:34.592Z,1.30
2022-11-22T06:07:08.398Z,1.30
2022-11-22T06:09:38.311Z,1.30
2022-11-22T06:12:08.385Z,1.30
2022-11-22T06:14:42.738Z,1.30
2022-11-22T06:17:11.644Z,1.30
2022-11-22T06:19:39.664Z,1.30
2022-11-22T06:22:07.653Z,1.30
2022-11-22T06:24:35.844Z,1.30
2022-11-22T06:27:03.993Z,1.30
2022-11-22T06:29:33.733Z,1.30
2022-11-22T06:32:03.738Z,1.30
2022-11-22T06:34:32.356Z,1.30
2022-11-22T06:37:00.554Z,1.30
2022-11-22T06:39:28.793Z,1.30
2022-11-22T06:41:57.347Z,1.30
2022-11-22T06:44:25.326Z,1.40
2022-11-22T06:46:54.669Z,1.40
2022-11-22T06:49:22.718Z,1.30
2022-11-22T06:51:50.903Z,1.30
2022-11-22T06:54:18.966Z,1.30
2022-11-22T06:56:47.224Z,1.30
2022-11-22T06:59:15.211Z,1.40
2022-11-22T07:01:43.329Z,1.30
2022-11-22T07:04:12.795Z,1.40
2022-11-22T07:06:40.968Z,1.30
2022-11-22T07:09:11.110Z,1.40
2022-11-22T07:11:40.717Z,1.40
2022-11-22T07:14:09.599Z,1.40
2022-11-22T07:16:38.893Z,1.40
2022-11-22T07:19:07.818Z,1.40
2022-11-22T07:21:38.307Z,1.40
2022-11-22T07:24:07.881Z,1.40
2022-11-22T07:26:35.909Z,1.40
2022-11-22T07:29:04.450Z,1.50
2022-11-22T07:31:32.778Z,1.40
2022-11-22T07:34:01.056Z,1.40
2022-11-22T07:36:30.407Z,1.40
2022-11-22T07:38:59.943Z,1.40
2022-11-22T07:41:27.923Z,1.50
2022-11-22T07:43:55.961Z,1.40
2022-11-22T07:46:26.600Z,1.40
2022-11-22T07:48:54.722Z,1.50
2022-11-22T07:51:22.713Z,1.50
2022-11-22T07:53:50.803Z,1.50
2022-11-22T07:56:20.920Z,1.50
2022-11-22T07:58:48.935Z,1.50
2022-11-22T08:01:19.171Z,1.50
2022-11-22T08:03:47.740Z,1.50
2022-11-22T08:06:16.616Z,1.50
2022-11-22T08:08:44.825Z,1.50
2022-11-22T08:11:13.659Z,1.50
2022-11-22T08:13:44.620Z,1.50
2022-11-22T08:16:14.682Z,1.50
2022-11-22T08:18:48.214Z,1.50
2022-11-22T08:21:17.793Z,1.50
2022-11-22T08:23:46.957Z,1.50
2022-11-22T08:26:17.181Z,1.50
2022-11-22T08:28:47.037Z,1.60
2022-11-22T08:31:19.041Z,1.60
2022-11-22T08:33:47.291Z,1.60
2022-11-22T08:36:15.857Z,1.60
2022-11-22T08:38:43.988Z,1.60
2022-11-22T08:41:12.828Z,1.60
2022-11-22T08:43:40.844Z,1.60
2022-11-22T08:46:10.703Z,1.60
2022-11-22T08:48:39.949Z,1.70
2022-11-22T08:51:10.399Z,1.70
2022-11-22T08:53:40.328Z,1.80
2022-11-22T08:56:10.684Z,1.80
2022-11-22T08:58:39.538Z,1.80
2022-11-22T09:01:09.765Z,1.70
2022-11-22T09:03:38.550Z,1.80
2022-11-22T09:09:15.241Z,1.90
2022-11-22T09:11:44.835Z,1.90
2022-11-22T09:14:13.241Z,1.90
2022-11-22T09:16:42.641Z,1.90
2022-11-22T09:19:10.998Z,1.90
2022-11-22T09:21:39.046Z,1.90
2022-11-22T09:24:07.535Z,1.90
2022-11-22T09:26:35.586Z,2.00
2022-11-22T09:29:03.633Z,2.00
2022-11-22T09:31:33.178Z,2.00
2022-11-22T09:34:02.638Z,2.00
2022-11-22T09:36:31.022Z,2.10
2022-11-22T09:38:59.611Z,2.00
2022-11-22T09:41:52.050Z,2.00
2022-11-22T09:44:29.524Z,2.10
2022-11-22T09:47:03.989Z,2.10
2022-11-22T09:49:47.100Z,2.10
2022-11-22T09:52:19.335Z,2.10
2022-11-22T09:54:52.098Z,2.10
2022-11-22T09:57:24.666Z,2.10
2022-11-22T10:00:02.142Z,2.10
2022-11-22T10:02:58.759Z,2.10
2022-11-22T10:05:31.345Z,2.20
2022-11-22T10:08:04.234Z,2.20
2022-11-22T10:10:40.109Z,2.30
2022-11-22T10:13:14.211Z,2.20
2022-11-22T10:15:50.240Z,2.20
2022-11-22T10:18:25.181Z,2.30
2022-11-22T10:20:54.919Z,2.30
2022-11-22T10:23:24.445Z,2.20
2022-11-22T10:25:58.800Z,2.20
2022-11-22T10:28:34.758Z,2.20
2022-11-22T10:31:09.187Z,2.20
2022-11-22T10:33:44.801Z,2.30
2022-11-22T10:36:36.200Z,2.30
2022-11-22T10:39:24.575Z,2.40
2022-11-22T10:42:22.518Z,2.50
2022-11-22T10:44:58.975Z,2.40
2022-11-22T10:47:41.910Z,2.40
2022-11-22T10:50:17.492Z,2.50
2022-11-22T10:52:57.641Z,2.40
2022-11-22T10:55:50.156Z,2.40
2022-11-22T10:58:26.729Z,2.40
2022-11-22T11:01:04.568Z,2.50
2022-11-22T11:03:35.281Z,2.50
2022-11-22T11:06:26.264Z,2.50
2022-11-22T11:09:54.960Z,2.60
2022-11-22T11:11:53.490Z,2.50
2022-11-22T11:14:28.986Z,2.50
2022-11-22T11:16:57.617Z,2.60
2022-11-22T11:19:28.265Z,2.60
2022-11-22T11:22:01.950Z,2.60
2022-11-22T11:24:33.161Z,2.70
2022-11-22T11:27:01.838Z,2.70
2022-11-22T11:29:38.977Z,2.80
2022-11-22T11:32:10.824Z,2.80
2022-11-22T11:34:41.255Z,2.90
2022-11-22T11:37:20.417Z,2.80
2022-11-22T11:39:49.976Z,2.90
2022-11-22T11:42:31.788Z,2.80
2022-11-22T11:45:29.320Z,2.80
2022-11-22T11:47:57.351Z,2.90
2022-11-22T11:50:28.001Z,2.90
2022-11-22T11:52:58.032Z,2.90
2022-11-22T11:55:32.303Z,3.00
2022-11-22T11:58:00.646Z,3.00
2022-11-22T12:00:36.695Z,3.00
2022-11-22T12:03:09.120Z,3.00
2022-11-22T12:05:37.171Z,3.10
2022-11-22T12:08:27.553Z,3.10
2022-11-22T12:11:04.402Z,3.00
2022-11-22T12:13:57.850Z,3.00
2022-11-22T12:16:31.085Z,3.10
2022-11-22T12:19:05.153Z,3.20
2022-11-22T12:21:43.351Z,3.20
2022-11-22T12:27:06.456Z,3.10
2022-11-22T12:29:38.335Z,3.10
2022-11-22T12:32:12.825Z,3.10
2022-11-22T12:34:49.189Z,3.10
2022-11-22T12:37:20.911Z,3.20
2022-11-22T12:39:50.509Z,3.10
2022-11-22T12:42:24.602Z,3.20
2022-11-22T12:44:58.324Z,3.30
2022-11-22T12:47:32.406Z,3.30
2022-11-22T12:50:07.192Z,3.30
2022-11-22T12:52:42.928Z,3.30
2022-11-22T12:55:17.822Z,3.30
2022-11-22T12:57:54.109Z,3.30
2022-11-22T13:00:24.924Z,3.40
2022-11-22T13:03:02.437Z,3.30
2022-11-22T13:05:33.154Z,3.30
2022-11-22T13:08:09.694Z,3.30
2022-11-22T13:10:43.316Z,3.30
2022-11-22T13:13:21.299Z,3.30
2022-11-22T13:15:52.985Z,3.40
2022-11-22T13:18:22.027Z,3.40
2022-11-22T13:20:55.908Z,3.40
2022-11-22T13:23:38.353Z,3.40
2022-11-22T13:26:14.884Z,3.40
2022-11-22T13:28:45.441Z,3.40
2022-11-22T13:31:19.658Z,3.30
2022-11-22T13:33:56.948Z,3.30
2022-11-22T13:36:41.230Z,3.30
2022-11-22T13:39:17.209Z,3.30
2022-11-22T13:41:53.471Z,3.30
2022-11-22T13:44:49.931Z,3.30
2022-11-22T13:47:37.994Z,3.30
2022-11-22T13:50:39.259Z,3.20
2022-11-22T13:53:25.951Z,3.20
2022-11-22T13:55:54.296Z,3.20
2022-11-22T13:59:04.972Z,3.30
2022-11-22T14:02:00.331Z,3.30
2022-11-22T14:04:45.013Z,3.20
2022-11-22T14:07:38.757Z,3.20
2022-11-22T14:10:30.020Z,3.20
2022-11-22T14:13:31.254Z,3.20
2022-11-22T14:16:19.004Z,3.10
2022-11-22T14:18:59.381Z,3.10
2022-11-22T14:21:46.997Z,3.10
2022-11-22T14:24:27.992Z,3.10
2022-11-22T14:27:01.868Z,3.10
2022-11-22T14:30:04.223Z,3.10
2022-11-22T14:32:44.002Z,3.00
2022-11-22T14:35:29.007Z,3.00
2022-11-22T14:38:20.148Z,3.00
2022-11-22T14:40:48.168Z,3.00
2022-11-22T14:43:33.999Z,3.00
2022-11-22T14:46:30.482Z,3.00
2022-11-22T14:49:03.405Z,3.10
2022-11-22T14:51:34.057Z,2.90
2022-11-22T14:54:05.533Z,2.90
2022-11-22T14:56:35.682Z,2.90
2022-11-22T14:59:16.904Z,2.90
2022-11-22T15:02:31.434Z,2.90
2022-11-22T15:09:09.898Z,2.90
2022-11-22T15:09:21.285Z,2.80
2022-11-22T15:11:35.639Z,2.90
2022-11-22T15:14:45.565Z,2.80
2022-11-22T15:57:34.753Z,2.30
2022-11-22T16:00:03.817Z,2.30
2022-11-22T16:02:33.189Z,2.30
2022-11-22T16:06:08.767Z,2.20
2022-11-22T16:07:52.578Z,2.30
2022-11-22T16:10:23.017Z,2.40
2022-11-22T16:12:53.794Z,2.20
2022-11-22T16:15:29.053Z,2.20
2022-11-22T16:18:07.965Z,2.20
2022-11-22T16:20:37.320Z,2.20
2022-11-22T16:23:17.538Z,2.20
2022-11-22T16:25:48.793Z,2.20
2022-11-22T16:28:36.684Z,2.10
2022-11-22T16:31:08.527Z,2.10
2022-11-22T16:33:37.069Z,2.10
2022-11-22T16:36:10.655Z,2.00
2022-11-22T16:38:38.932Z,2.10
2022-11-22T16:41:13.516Z,2.10
2022-11-22T16:43:43.347Z,2.10
2022-11-22T16:46:15.228Z,2.00
2022-11-22T16:48:44.553Z,2.00
2022-11-22T16:51:15.425Z,2.10
2022-11-22T16:53:45.733Z,2.00
2022-11-22T16:56:19.629Z,2.00
2022-11-22T16:58:50.047Z,1.90
2022-11-22T17:01:20.294Z,2.00
2022-11-22T17:03:50.795Z,2.00
2022-11-22T17:06:20.371Z,2.00
2022-11-22T17:08:50.146Z,2.00
2022-11-22T17:11:20.521Z,2.10
2022-11-22T17:13:50.065Z,2.10
2022-11-22T17:16:19.164Z,2.10
2022-11-22T17:18:48.169Z,2.10
2022-11-22T17:21:22.094Z,2.00
2022-11-22T17:23:50.649Z,2.00
2022-11-22T17:26:18.723Z,2.00
2022-11-22T17:28:46.776Z,2.00
2022-11-22T17:31:17.992Z,2.10
2022-11-22T17:33:46.033Z,2.00
2022-11-22T17:36:22.768Z,2.00
2022-11-22T17:38:50.828Z,1.90
2022-11-22T17:41:18.941Z,1.80
2022-11-22T17:43:48.283Z,1.80
2022-11-22T17:46:17.989Z,1.80
2022-11-22T17:49:03.969Z,1.70
2022-11-22T17:51:32.800Z,1.70
2022-11-22T17:54:02.448Z,1.70
2022-11-22T17:56:32.627Z,1.70
2022-11-22T17:59:03.745Z,1.70
2022-11-22T18:01:34.231Z,1.80
2022-11-22T18:04:02.242Z,1.80
2022-11-22T18:06:31.410Z,1.70
2022-11-22T18:09:00.402Z,1.70
2022-11-22T18:11:28.475Z,1.70
2022-11-22T18:13:56.696Z,1.60
2022-11-22T18:16:32.479Z,1.60
2022-11-22T18:19:02.388Z,1.70
2022-11-22T18:21:32.039Z,1.70
2022-11-22T18:24:00.788Z,1.60
2022-11-22T18:26:39.378Z,1.60
2022-11-22T18:31:57.212Z,1.50
2022-11-22T18:34:27.898Z,1.60
2022-11-22T18:37:00.893Z,1.70
2022-11-22T18:39:31.334Z,1.70
2022-11-22T18:41:59.821Z,1.70
2022-11-22T18:44:28.097Z,1.60
2022-11-22T18:46:56.309Z,1.70
2022-11-22T18:49:25.859Z,1.60
2022-11-22T18:51:53.991Z,1.50
2022-11-22T18:54:22.869Z,1.50
2022-11-22T18:56:51.566Z,1.50
2022-11-22T18:59:19.831Z,1.50
2022-11-22T19:01:48.048Z,1.60
2022-11-22T19:04:17.176Z,1.60
2022-11-22T19:06:46.919Z,1.60
2022-11-22T19:09:15.184Z,1.70
2022-11-22T19:11:43.361Z,1.80
2022-11-22T19:14:11.390Z,1.80
2022-11-22T19:16:39.481Z,1.70
2022-11-22T19:19:08.421Z,1.70
2022-11-22T19:21:36.941Z,1.60
2022-11-22T19:24:07.218Z,1.60
2022-11-22T19:26:35.414Z,1.70
2022-11-22T19:29:04.943Z,1.60
2022-11-22T19:31:33.778Z,1.70
2022-11-22T19:34:01.830Z,1.60
2022-11-22T19:36:33.634Z,1.50
2022-11-22T19:39:03.639Z,1.50
2022-11-22T19:41:33.392Z,1.50
2022-11-22T19:44:01.549Z,1.60
2022-11-22T19:46:30.546Z,1.50
2022-11-22T19:48:59.861Z,1.50
2022-11-22T19:51:29.438Z,1.50
2022-11-22T19:53:59.488Z,1.40
2022-11-22T19:56:30.261Z,1.40
2022-11-22T19:59:01.557Z,1.50
2022-11-22T20:01:31.232Z,1.50
2022-11-22T20:04:00.970Z,1.50
2022-11-22T20:06:29.697Z,1.50
2022-11-22T20:09:02.336Z,1.60
2022-11-22T20:11:30.599Z,1.50
2022-11-22T20:14:00.069Z,1.60
2022-11-22T20:16:29.700Z,1.60
2022-11-22T20:18:59.486Z,1.50
2022-11-22T20:21:29.423Z,1.60
2022-11-22T20:23:57.868Z,1.60
2022-11-22T20:26:26.940Z,1.70
2022-11-22T20:29:00.243Z,1.70
2022-11-22T20:31:30.613Z,1.60
2022-11-22T20:34:00.747Z,1.70
2022-11-22T20:36:30.455Z,1.60
2022-11-22T20:38:58.851Z,1.60
2022-11-22T20:41:30.230Z,1.70
2022-11-22T20:43:59.757Z,1.70
2022-11-22T20:46:29.342Z,1.70
2022-11-22T20:48:58.981Z,1.70
2022-11-22T20:51:29.119Z,1.70
2022-11-22T20:53:57.833Z,1.60
2022-11-22T20:56:26.251Z,1.60
2022-11-22T20:58:54.572Z,1.60
2022-11-22T21:01:25.932Z,1.60
2022-11-22T21:03:54.717Z,1.60
2022-11-22T21:06:24.538Z,1.60
2022-11-22T21:08:52.866Z,1.60
2022-11-22T21:11:24.192Z,1.60
2022-11-22T21:13:53.138Z,1.70
2022-11-22T21:16:24.863Z,1.60
2022-11-22T21:18:54.080Z,1.60
2022-11-22T21:21:23.958Z,1.70
2022-11-22T21:23:53.501Z,1.60
2022-11-22T21:26:21.957Z,1.60
2022-11-22T21:28:50.397Z,1.60
2022-11-22T21:31:19.451Z,1.60
2022-11-22T21:33:49.329Z,1.60
2022-11-22T21:36:17.778Z,1.60
2022-11-22T21:38:45.947Z,1.60
2022-11-22T21:44:04.852Z,1.50
2022-11-22T21:46:33.156Z,1.60
2022-11-22T21:49:02.763Z,1.60
2022-11-22T21:51:31.933Z,1.70
2022-11-22T21:54:00.606Z,1.60
2022-11-22T21:56:29.544Z,1.60
2022-11-22T21:58:57.870Z,1.60
2022-11-22T22:01:25.983Z,1.60
2022-11-22T22:03:54.583Z,1.70
2022-11-22T22:06:25.135Z,1.70
2022-11-22T22:08:53.216Z,1.60
2022-11-22T22:11:21.368Z,1.60
2022-11-22T22:13:49.422Z,1.60
2022-11-22T22:16:19.268Z,1.70
2022-11-22T22:18:48.154Z,1.70
2022-11-22T22:21:17.743Z,1.70
2022-11-22T22:23:47.749Z,1.70
2022-11-22T22:26:17.249Z,1.70
2022-11-22T22:28:46.206Z,1.70
2022-11-22T22:31:17.062Z,1.70
2022-11-22T22:33:46.618Z,1.70
2022-11-22T22:36:15.251Z,1.60
2022-11-22T22:38:43.385Z,1.60
2022-11-22T22:41:14.463Z,1.60
2022-11-22T22:43:44.390Z,1.70
2022-11-22T22:46:14.771Z,1.60
2022-11-22T22:48:43.542Z,1.60
2022-11-22T22:51:14.658Z,1.70
2022-11-22T22:53:43.535Z,1.60
2022-11-22T22:56:14.903Z,1.60
2022-11-22T22:58:43.419Z,1.70
2022-11-22T23:01:14.633Z,1.70
2022-11-22T23:03:42.861Z,1.70
2022-11-22T23:06:12.668Z,1.70
2022-11-22T23:08:41.526Z,1.70
2022-11-22T23:11:10.889Z,1.70
2022-11-22T23:13:42.510Z,1.80
2022-11-22T23:16:12.557Z,1.70
2022-11-22T23:18:43.053Z,1.80
2022-11-22T23:21:13.197Z,1.70
2022-11-22T23:23:41.446Z,1.60
2022-11-22T23:26:10.857Z,1.60
2022-11-22T23:28:40.647Z,1.60
2022-11-22T23:31:10.612Z,1.70
2022-11-22T23:33:38.969Z,1.70
2022-11-22T23:36:09.294Z,1.60
2022-11-22T23:38:37.828Z,1.70
2022-11-22T23:41:06.341Z,1.80
2022-11-22T23:43:34.887Z,1.70
2022-11-22T23:46:04.331Z,1.80
2022-11-22T23:48:32.427Z,1.80
2022-11-22T23:51:05.149Z,1.90
2022-11-22T23:53:33.134Z,1.90
2022-11-22T23:56:06.589Z,2.00
2022-11-22T23:58:34.993Z,1.90
